Time;durP1;ratioP1;P1;durP2;ratioP2;P2;SDS_P1;SDS_P2;PMS_P1;PMS_P2;Temp;Humidity;BMP_temperature;BMP_pressure;BME280_temperature;BME280_humidity;BME280_pressure;Samples;Min_cycle;Max_cycle;Signal;HPM_P1;HPM_P2
2024/01/12 00:00:13;;;;;;;6.80;3.10;;;;;;;;;;43453;280;3031688;-33
2024/01/12 00:02:41;;;;;;;7.50;3.20;;;;;;;;;;43501;268;3031575;-32
2024/01/12 00:04:28;;;;;;;7.00;3.30;;;;;;;;;;43437;272;3031992;-32
2024/01/12 00:06:16;;;;;;;6.30;3.00;;;;;;;;;;43439;272;3031236;-32
2024/01/12 00:08:02;;;;;;;5.80;2.90;;;;;;;;;;44171;275;3031814;-32
2024/01/12 00:09:49;;;;;;;7.20;3.40;;;;;;;;;;43858;268;3030573;-32
2024/01/12 00:11:37;;;;;;;6.80;3.30;;;;;;;;;;43452;272;3031978;-33
2024/01/12 00:13:24;;;;;;;6.10;3.00;;;;;;;;;;43423;279;3031540;-33
2024/01/12 00:15:11;;;;;;;6.40;2.80;;;;;;;;;;43478;279;3030810;-32
2024/01/12 00:16:56;;;;;;;6.20;2.90;;;;;;;;;;43554;276;3031341;-32
2024/01/12 00:18:44;;;;;;;6.10;2.90;;;;;;;;;;43423;279;3031668;-32
2024/01/12 00:20:30;;;;;;;5.90;2.90;;;;;;;;;;43453;272;3031424;-32
2024/01/12 00:22:17;;;;;;;5.60;2.80;;;;;;;;;;43449;276;3031407;-32
2024/01/12 00:24:02;;;;;;;6.80;3.10;;;;;;;;;;43452;279;3032329;-32
2024/01/12 00:25:48;;;;;;;6.30;2.80;;;;;;;;;;43442;268;3032537;-32
2024/01/12 00:27:32;;;;;;;5.90;2.80;;;;;;;;;;43459;268;3032560;-32
2024/01/12 00:29:17;;;;;;;6.40;2.90;;;;;;;;;;43453;279;3038962;-32
2024/01/12 00:31:02;;;;;;;6.00;2.70;;;;;;;;;;43457;279;3031584;-32
2024/01/12 00:32:48;;;;;;;6.00;2.70;;;;;;;;;;43449;279;3032217;-32
2024/01/12 00:34:33;;;;;;;6.60;2.90;;;;;;;;;;43467;279;3031238;-32
2024/01/12 00:36:20;;;;;;;5.70;2.60;;;;;;;;;;43469;279;3031685;-33
2024/01/12 00:41:08;;;;;;;5.90;2.70;;;;;;;;;;43419;280;3037454;-33
2024/01/12 00:42:53;;;;;;;5.80;2.80;;;;;;;;;;43481;280;3030988;-32
2024/01/12 00:44:43;;;;;;;5.80;2.60;;;;;;;;;;43447;280;3030912;-32
2024/01/12 00:46:36;;;;;;;6.40;2.90;;;;;;;;;;43460;280;3031681;-33
2024/01/12 00:48:26;;;;;;;5.90;2.70;;;;;;;;;;43438;280;3031059;-33
2024/01/12 00:50:14;;;;;;;5.80;2.80;;;;;;;;;;43449;280;3031885;-33
2024/01/12 00:52:08;;;;;;;6.30;2.80;;;;;;;;;;43498;272;3031524;-32
2024/01/12 00:53:54;;;;;;;6.10;2.60;;;;;;;;;;43452;280;3031471;-32
2024/01/12 00:55:42;;;;;;;5.60;2.70;;;;;;;;;;43724;280;3031549;-32
2024/01/12 00:57:30;;;;;;;5.80;2.90;;;;;;;;;;43426;280;3031824;-33
2024/01/12 00:59:15;;;;;;;5.10;2.40;;;;;;;;;;43449;280;3031627;-33
2024/01/12 01:01:06;;;;;;;4.80;2.10;;;;;;;;;;43432;280;3031421;-33
2024/01/12 01:02:52;;;;;;;5.90;2.50;;;;;;;;;;44234;268;3039962;-33
2024/01/12 01:04:37;;;;;;;5.60;2.60;;;;;;;;;;43552;288;3030955;-33
2024/01/12 01:06:23;;;;;;;5.70;2.80;;;;;;;;;;43479;280;3031797;-33
2024/01/12 01:08:08;;;;;;;5.10;2.40;;;;;;;;;;43189;280;3031726;-33
2024/01/12 01:09:54;;;;;;;5.50;2.50;;;;;;;;;;43453;287;3031860;-33
2024/01/12 01:11:43;;;;;;;5.70;2.50;;;;;;;;;;43446;280;3032074;-33
2024/01/12 01:13:31;;;;;;;5.70;2.50;;;;;;;;;;43438;268;3031580;-33
2024/01/12 01:15:21;;;;;;;5.50;2.40;;;;;;;;;;43487;276;3031349;-33
2024/01/12 01:17:09;;;;;;;5.10;2.50;;;;;;;;;;43462;280;3031104;-33
2024/01/12 01:18:58;;;;;;;5.60;2.30;;;;;;;;;;43469;280;3031579;-33
2024/01/12 01:20:43;;;;;;;5.30;2.40;;;;;;;;;;43497;272;3031134;-33
2024/01/12 01:22:29;;;;;;;4.80;2.40;;;;;;;;;;43446;279;3031695;-32
2024/01/12 01:24:14;;;;;;;5.50;2.50;;;;;;;;;;43498;272;3030733;-32
2024/01/12 01:26:00;;;;;;;5.20;2.20;;;;;;;;;;43452;268;3031278;-32
2024/01/12 01:27:47;;;;;;;5.40;2.50;;;;;;;;;;43443;272;3033539;-32
2024/01/12 01:29:32;;;;;;;5.00;2.30;;;;;;;;;;43474;271;3030962;-32
2024/01/12 01:31:17;;;;;;;5.80;2.50;;;;;;;;;;43663;268;3031685;-32
2024/01/12 01:33:05;;;;;;;4.90;2.40;;;;;;;;;;43410;272;3031170;-32
2024/01/12 01:34:50;;;;;;;5.80;2.60;;;;;;;;;;43424;268;3031747;-32
2024/01/12 01:36:36;;;;;;;4.80;2.30;;;;;;;;;;44160;279;3031620;-32
2024/01/12 01:38:22;;;;;;;4.90;2.20;;;;;;;;;;44172;272;3031996;-32
2024/01/12 01:40:09;;;;;;;5.60;2.30;;;;;;;;;;43676;276;3031544;-32
2024/01/12 01:41:54;;;;;;;4.90;2.10;;;;;;;;;;43676;272;3032085;-32
2024/01/12 01:43:40;;;;;;;5.50;2.60;;;;;;;;;;43449;279;3038043;-32
2024/01/12 01:45:29;;;;;;;5.20;2.40;;;;;;;;;;43453;276;3031295;-32
2024/01/12 01:47:14;;;;;;;5.10;2.40;;;;;;;;;;43451;268;3031279;-32
2024/01/12 01:48:59;;;;;;;4.90;2.40;;;;;;;;;;43455;272;3031629;-32
2024/01/12 01:50:46;;;;;;;5.40;2.50;;;;;;;;;;43455;264;3030898;-32
2024/01/12 01:52:33;;;;;;;4.90;2.20;;;;;;;;;;43423;279;3031587;-32
2024/01/12 01:54:20;;;;;;;5.30;2.20;;;;;;;;;;43470;272;3031452;-32
2024/01/12 01:56:09;;;;;;;5.00;2.40;;;;;;;;;;43450;268;3031319;-32
2024/01/12 01:57:54;;;;;;;5.20;2.30;;;;;;;;;;43883;272;3031910;-32
2024/01/12 01:59:42;;;;;;;4.90;2.30;;;;;;;;;;43440;288;3031371;-32
2024/01/12 02:01:28;;;;;;;5.40;2.20;;;;;;;;;;43586;279;3030777;-32
2024/01/12 02:03:13;;;;;;;4.60;2.50;;;;;;;;;;43409;279;3031631;-32
2024/01/12 02:05:02;;;;;;;5.00;2.40;;;;;;;;;;43459;279;3030939;-32
2024/01/12 02:06:50;;;;;;;5.40;2.60;;;;;;;;;;43498;279;3031978;-32
2024/01/12 02:08:35;;;;;;;5.00;2.40;;;;;;;;;;43469;279;3032425;-32
2024/01/12 02:10:22;;;;;;;5.50;2.40;;;;;;;;;;43472;272;3032562;-32
2024/01/12 02:12:08;;;;;;;4.80;2.20;;;;;;;;;;43442;276;3031299;-32
2024/01/12 02:13:53;;;;;;;5.30;2.20;;;;;;;;;;43508;280;3031737;-32
2024/01/12 02:15:38;;;;;;;4.90;2.30;;;;;;;;;;43426;288;3031696;-32
2024/01/12 02:17:24;;;;;;;5.10;2.40;;;;;;;;;;43460;272;3033393;-32
2024/01/12 02:19:09;;;;;;;4.80;2.20;;;;;;;;;;43438;272;3031386;-32
2024/01/12 02:20:59;;;;;;;4.70;2.20;;;;;;;;;;43451;279;3031572;-32
2024/01/12 02:22:44;;;;;;;5.70;2.30;;;;;;;;;;43468;275;3031212;-32
2024/01/12 02:24:29;;;;;;;4.90;2.30;;;;;;;;;;43433;272;3039665;-32
2024/01/12 02:26:16;;;;;;;5.10;2.30;;;;;;;;;;43451;272;3031362;-32
2024/01/12 02:28:07;;;;;;;4.50;2.20;;;;;;;;;;43445;287;3031621;-32
2024/01/12 02:29:54;;;;;;;4.70;2.30;;;;;;;;;;43535;268;3031539;-32
2024/01/12 02:31:43;;;;;;;5.20;2.30;;;;;;;;;;43442;280;3031877;-32
2024/01/12 02:33:27;;;;;;;5.30;2.20;;;;;;;;;;43697;276;3031942;-32
2024/01/12 02:35:15;;;;;;;5.30;2.40;;;;;;;;;;43446;280;3031433;-32
2024/01/12 02:37:00;;;;;;;4.80;2.30;;;;;;;;;;43433;271;3031435;-32
2024/01/12 02:38:49;;;;;;;5.30;2.50;;;;;;;;;;43471;268;3031547;-32
2024/01/12 02:40:34;;;;;;;4.50;2.30;;;;;;;;;;44192;268;3031885;-32
2024/01/12 02:42:18;;;;;;;5.10;2.40;;;;;;;;;;44178;276;3030830;-32
2024/01/12 02:44:04;;;;;;;4.50;2.00;;;;;;;;;;43704;284;3031349;-32
2024/01/12 02:45:50;;;;;;;4.80;2.10;;;;;;;;;;43439;275;3031557;-32
2024/01/12 02:47:35;;;;;;;4.40;2.30;;;;;;;;;;43459;272;3030925;-33
2024/01/12 02:49:22;;;;;;;4.40;2.10;;;;;;;;;;43457;268;3031788;-33
2024/01/12 02:51:08;;;;;;;5.20;2.50;;;;;;;;;;44171;276;3031167;-33
2024/01/12 02:52:53;;;;;;;4.70;2.30;;;;;;;;;;44190;276;3031135;-33
2024/01/12 02:54:38;;;;;;;4.50;2.10;;;;;;;;;;44210;272;3031826;-33
2024/01/12 02:56:22;;;;;;;4.50;2.10;;;;;;;;;;44185;276;3030987;-33
2024/01/12 02:58:07;;;;;;;4.80;2.10;;;;;;;;;;44167;272;3031861;-33
2024/01/12 02:59:52;;;;;;;4.60;2.20;;;;;;;;;;44250;275;3031097;-33
2024/01/12 03:01:37;;;;;;;5.60;2.30;;;;;;;;;;44223;276;3032926;-33
2024/01/12 03:03:22;;;;;;;4.90;2.30;;;;;;;;;;44236;275;3030797;-33
2024/01/12 03:05:09;;;;;;;5.20;2.50;;;;;;;;;;44147;288;3031801;-33
2024/01/12 03:06:54;;;;;;;5.00;2.20;;;;;;;;;;43507;279;3031283;-33
2024/01/12 03:08:40;;;;;;;4.90;2.20;;;;;;;;;;43452;280;3031490;-33
2024/01/12 03:10:25;;;;;;;4.70;2.20;;;;;;;;;;43475;279;3031843;-33
2024/01/12 03:12:12;;;;;;;5.00;2.40;;;;;;;;;;43458;288;3031698;-33
2024/01/12 03:13:58;;;;;;;4.90;2.50;;;;;;;;;;43484;280;3031493;-33
2024/01/12 03:15:43;;;;;;;4.90;2.10;;;;;;;;;;43452;268;3037663;-32
2024/01/12 03:17:30;;;;;;;5.10;2.10;;;;;;;;;;43473;279;3031578;-32
2024/01/12 03:19:15;;;;;;;4.50;2.00;;;;;;;;;;43467;280;3031075;-32
2024/01/12 03:21:01;;;;;;;4.90;2.30;;;;;;;;;;43444;272;3031369;-32
2024/01/12 03:22:52;;;;;;;5.20;2.40;;;;;;;;;;43466;279;3031689;-32
2024/01/12 03:24:37;;;;;;;4.60;2.20;;;;;;;;;;43435;272;3031421;-32
2024/01/12 03:26:22;;;;;;;4.90;2.30;;;;;;;;;;43467;288;3030936;-32
2024/01/12 03:28:10;;;;;;;4.90;2.40;;;;;;;;;;43485;279;3032738;-32
2024/01/12 03:29:55;;;;;;;5.60;2.30;;;;;;;;;;43458;276;3031179;-32
2024/01/12 03:31:40;;;;;;;4.70;2.20;;;;;;;;;;43437;276;3031951;-32
2024/01/12 03:33:25;;;;;;;4.70;2.20;;;;;;;;;;43458;279;3031641;-32
2024/01/12 03:35:13;;;;;;;5.00;2.30;;;;;;;;;;43542;272;3031908;-32
2024/01/12 03:37:02;;;;;;;5.00;2.30;;;;;;;;;;43463;288;3031116;-32
2024/01/12 03:38:53;;;;;;;4.80;2.50;;;;;;;;;;43481;268;3032384;-32
2024/01/12 03:40:38;;;;;;;4.50;2.20;;;;;;;;;;43961;275;3031934;-33
2024/01/12 03:42:24;;;;;;;4.80;2.10;;;;;;;;;;43461;276;3031045;-33
2024/01/12 03:44:09;;;;;;;4.70;2.00;;;;;;;;;;43449;279;3031912;-32
2024/01/12 03:45:55;;;;;;;5.00;2.40;;;;;;;;;;43430;268;3031346;-32
2024/01/12 03:47:42;;;;;;;4.80;2.20;;;;;;;;;;43463;280;3031481;-32
2024/01/12 03:49:29;;;;;;;5.10;2.40;;;;;;;;;;43458;280;3032069;-32
2024/01/12 03:51:16;;;;;;;4.80;2.10;;;;;;;;;;43481;272;3031298;-32
2024/01/12 03:53:00;;;;;;;4.40;2.10;;;;;;;;;;43455;279;3030925;-32
2024/01/12 03:54:45;;;;;;;4.60;2.30;;;;;;;;;;43452;276;3031757;-32
2024/01/12 03:56:30;;;;;;;4.90;2.30;;;;;;;;;;43442;272;3031568;-32
2024/01/12 03:58:18;;;;;;;4.80;2.30;;;;;;;;;;43462;268;3031362;-32
2024/01/12 04:00:07;;;;;;;5.20;2.10;;;;;;;;;;43462;287;3031547;-32
2024/01/12 04:01:52;;;;;;;5.70;2.20;;;;;;;;;;44122;279;3031685;-32
2024/01/12 04:03:38;;;;;;;4.20;1.90;;;;;;;;;;44018;272;3030992;-32
2024/01/12 04:05:23;;;;;;;5.10;2.20;;;;;;;;;;43459;279;3032726;-32
2024/01/12 04:07:12;;;;;;;5.30;2.10;;;;;;;;;;43472;268;3038039;-32
2024/01/12 04:08:58;;;;;;;5.20;2.20;;;;;;;;;;43448;279;3030945;-32
2024/01/12 04:10:44;;;;;;;5.00;2.00;;;;;;;;;;43456;279;3031328;-32
2024/01/12 04:12:29;;;;;;;4.90;2.00;;;;;;;;;;43480;272;3031109;-32
2024/01/12 04:14:18;;;;;;;5.20;2.20;;;;;;;;;;43473;272;3032027;-32
2024/01/12 04:16:03;;;;;;;4.40;2.00;;;;;;;;;;43451;280;3031257;-32
2024/01/12 04:17:49;;;;;;;4.70;2.10;;;;;;;;;;43460;268;3031853;-32
2024/01/12 04:19:34;;;;;;;4.70;2.10;;;;;;;;;;43473;276;3031051;-32
2024/01/12 04:21:23;;;;;;;4.70;2.20;;;;;;;;;;43446;279;3033736;-32
2024/01/12 04:23:07;;;;;;;5.80;2.00;;;;;;;;;;43441;287;3031546;-32
2024/01/12 04:24:52;;;;;;;5.20;2.00;;;;;;;;;;43471;268;3031500;-32
2024/01/12 04:26:37;;;;;;;5.70;2.20;;;;;;;;;;43467;276;3031861;-32
2024/01/12 04:28:23;;;;;;;4.90;1.90;;;;;;;;;;43453;276;3031951;-32
2024/01/12 04:30:11;;;;;;;5.60;2.30;;;;;;;;;;43456;279;3032451;-32
2024/01/12 04:31:56;;;;;;;5.30;2.00;;;;;;;;;;44152;279;3030962;-32
2024/01/12 04:33:44;;;;;;;6.60;2.40;;;;;;;;;;43461;272;3031430;-32
2024/01/12 04:35:30;;;;;;;5.00;2.20;;;;;;;;;;43483;279;3031988;-32
2024/01/12 04:37:15;;;;;;;5.10;2.20;;;;;;;;;;43431;275;3031665;-32
2024/01/12 04:39:01;;;;;;;5.10;1.80;;;;;;;;;;43474;272;3032024;-32
2024/01/12 04:40:46;;;;;;;6.10;2.30;;;;;;;;;;43766;279;3031093;-32
2024/01/12 04:42:34;;;;;;;4.60;2.10;;;;;;;;;;43454;288;3031677;-32
2024/01/12 04:44:18;;;;;;;5.20;2.20;;;;;;;;;;43452;268;3031990;-32
2024/01/12 04:46:05;;;;;;;6.30;2.10;;;;;;;;;;43460;272;3031510;-32
2024/01/12 04:47:50;;;;;;;4.90;2.20;;;;;;;;;;44011;272;3031655;-32
2024/01/12 04:49:39;;;;;;;5.10;2.00;;;;;;;;;;43468;280;3031603;-32
2024/01/12 04:51:30;;;;;;;5.40;2.00;;;;;;;;;;43452;279;3031394;-32
2024/01/12 04:53:17;;;;;;;4.80;2.00;;;;;;;;;;43460;287;3031897;-32
2024/01/12 04:55:03;;;;;;;4.50;1.90;;;;;;;;;;43438;287;3031064;-32
2024/01/12 04:56:48;;;;;;;6.60;2.10;;;;;;;;;;44130;279;3032019;-32
2024/01/12 04:58:33;;;;;;;4.40;1.90;;;;;;;;;;44185;276;3038628;-32
2024/01/12 05:00:20;;;;;;;5.60;2.00;;;;;;;;;;43696;268;3032027;-32
2024/01/12 05:02:05;;;;;;;5.00;2.10;;;;;;;;;;44190;272;3031943;-32
2024/01/12 05:03:51;;;;;;;5.40;2.10;;;;;;;;;;44197;276;3030807;-32
2024/01/12 05:05:37;;;;;;;5.10;2.00;;;;;;;;;;43462;279;3032639;-32
2024/01/12 05:07:22;;;;;;;5.80;2.00;;;;;;;;;;43420;280;3031818;-32
2024/01/12 05:09:08;;;;;;;4.90;1.90;;;;;;;;;;43476;280;3031569;-32
2024/01/12 05:10:54;;;;;;;5.50;2.10;;;;;;;;;;43491;272;3032520;-32
2024/01/12 05:12:41;;;;;;;5.40;1.90;;;;;;;;;;44154;276;3031205;-32
2024/01/12 05:14:28;;;;;;;4.50;2.00;;;;;;;;;;43460;284;3031327;-32
2024/01/12 05:16:15;;;;;;;5.20;2.10;;;;;;;;;;43468;279;3031919;-32
2024/01/12 05:18:02;;;;;;;5.30;1.90;;;;;;;;;;43434;279;3031326;-32
2024/01/12 05:19:48;;;;;;;4.30;2.00;;;;;;;;;;43440;279;3031288;-32
2024/01/12 05:21:33;;;;;;;4.60;2.10;;;;;;;;;;43463;279;3031878;-32
2024/01/12 05:23:21;;;;;;;5.80;2.20;;;;;;;;;;43488;279;3031606;-32
2024/01/12 05:25:08;;;;;;;4.60;2.00;;;;;;;;;;43474;272;3033100;-32
2024/01/12 05:26:54;;;;;;;4.20;1.90;;;;;;;;;;44148;272;3031882;-32
2024/01/12 05:28:39;;;;;;;4.60;1.90;;;;;;;;;;44119;289;3031927;-32
2024/01/12 05:30:24;;;;;;;4.40;2.00;;;;;;;;;;44218;272;3031798;-33
2024/01/12 05:32:09;;;;;;;5.20;2.20;;;;;;;;;;43478;272;3030956;-32
2024/01/12 05:33:54;;;;;;;4.60;2.00;;;;;;;;;;43462;280;3031404;-32
2024/01/12 05:35:42;;;;;;;4.20;1.90;;;;;;;;;;43438;280;3031697;-32
2024/01/12 05:37:30;;;;;;;4.70;2.30;;;;;;;;;;43457;280;3031798;-32
2024/01/12 05:39:16;;;;;;;4.70;2.00;;;;;;;;;;43428;287;3038345;-32
2024/01/12 05:41:01;;;;;;;4.90;2.20;;;;;;;;;;43462;280;3032041;-33
2024/01/12 05:42:46;;;;;;;4.60;2.00;;;;;;;;;;43482;268;3030974;-33
2024/01/12 05:44:35;;;;;;;5.10;2.30;;;;;;;;;;43444;268;3032064;-33
2024/01/12 05:46:21;;;;;;;4.50;2.00;;;;;;;;;;43465;279;3031870;-33
2024/01/12 05:48:12;;;;;;;4.90;2.20;;;;;;;;;;43424;279;3031534;-32
2024/01/12 05:49:57;;;;;;;5.00;2.30;;;;;;;;;;43471;279;3031548;-32
2024/01/12 05:51:43;;;;;;;4.70;2.10;;;;;;;;;;44138;280;3031328;-32
2024/01/12 05:53:30;;;;;;;4.50;2.30;;;;;;;;;;43818;268;3031550;-32
2024/01/12 05:55:16;;;;;;;4.80;2.10;;;;;;;;;;43906;280;3031901;-32
2024/01/12 05:57:02;;;;;;;5.00;2.20;;;;;;;;;;43454;272;3031426;-32
2024/01/12 05:58:48;;;;;;;4.70;2.20;;;;;;;;;;43447;288;3030995;-32
2024/01/12 06:00:36;;;;;;;5.00;2.30;;;;;;;;;;43436;268;3031930;-32
2024/01/12 06:02:22;;;;;;;4.30;2.10;;;;;;;;;;43467;268;3031146;-32
2024/01/12 06:04:07;;;;;;;4.60;2.50;;;;;;;;;;43449;280;3031926;-33
2024/01/12 06:05:53;;;;;;;4.50;2.40;;;;;;;;;;43547;280;3031025;-33
2024/01/12 06:07:38;;;;;;;4.80;2.40;;;;;;;;;;43446;268;3031675;-32
2024/01/12 06:09:23;;;;;;;4.60;2.20;;;;;;;;;;43429;275;3031475;-33
2024/01/12 06:11:12;;;;;;;4.40;2.10;;;;;;;;;;43446;272;3031298;-33
2024/01/12 06:12:59;;;;;;;4.90;2.20;;;;;;;;;;43459;272;3030822;-33
2024/01/12 06:14:44;;;;;;;4.50;2.30;;;;;;;;;;43461;272;3033277;-33
2024/01/12 06:16:29;;;;;;;5.20;2.30;;;;;;;;;;43457;280;3030886;-33
2024/01/12 06:18:14;;;;;;;4.80;2.40;;;;;;;;;;43448;272;3032079;-33
2024/01/12 06:20:03;;;;;;;5.00;2.30;;;;;;;;;;43440;268;3031940;-33
2024/01/12 06:21:48;;;;;;;4.90;2.40;;;;;;;;;;43760;272;3031851;-33
2024/01/12 06:23:32;;;;;;;4.50;2.10;;;;;;;;;;43453;280;3031024;-33
2024/01/12 06:25:19;;;;;;;5.10;2.60;;;;;;;;;;43453;271;3031404;-33
2024/01/12 06:27:04;;;;;;;5.00;2.30;;;;;;;;;;43441;272;3031836;-33
2024/01/12 06:28:49;;;;;;;5.30;2.50;;;;;;;;;;43538;287;3031032;-33
2024/01/12 06:30:34;;;;;;;4.80;2.40;;;;;;;;;;43438;272;3037967;-33
2024/01/12 06:32:19;;;;;;;4.50;2.30;;;;;;;;;;43452;272;3031202;-33
2024/01/12 06:34:06;;;;;;;5.00;2.50;;;;;;;;;;43473;272;3031859;-33
2024/01/12 06:35:51;;;;;;;4.40;2.20;;;;;;;;;;43477;272;3031029;-33
2024/01/12 06:37:36;;;;;;;5.10;2.40;;;;;;;;;;43457;279;3031796;-33
2024/01/12 06:39:21;;;;;;;4.90;2.20;;;;;;;;;;43429;272;3031834;-33
2024/01/12 06:41:08;;;;;;;4.60;2.20;;;;;;;;;;43482;279;3031150;-33
2024/01/12 06:42:58;;;;;;;4.80;2.30;;;;;;;;;;43443;272;3031821;-33
2024/01/12 06:44:44;;;;;;;4.70;2.70;;;;;;;;;;43481;280;3031543;-33
2024/01/12 06:46:34;;;;;;;4.80;2.30;;;;;;;;;;43468;276;3031379;-33
2024/01/12 06:48:19;;;;;;;4.40;2.20;;;;;;;;;;43441;268;3031682;-33
2024/01/12 06:50:12;;;;;;;4.70;2.40;;;;;;;;;;43418;280;3031875;-33
2024/01/12 06:51:57;;;;;;;4.60;2.30;;;;;;;;;;44192;288;3031284;-33
2024/01/12 06:53:42;;;;;;;4.20;2.20;;;;;;;;;;43887;279;3031635;-33
2024/01/12 06:55:28;;;;;;;5.20;2.50;;;;;;;;;;43467;279;3031306;-33
2024/01/12 06:57:16;;;;;;;5.30;2.40;;;;;;;;;;43440;272;3031307;-33
2024/01/12 06:59:02;;;;;;;4.60;2.30;;;;;;;;;;44085;276;3031663;-33
2024/01/12 07:00:50;;;;;;;5.30;2.30;;;;;;;;;;43420;276;3031643;-33
2024/01/12 07:02:36;;;;;;;4.30;2.40;;;;;;;;;;43460;268;3031212;-33
2024/01/12 07:04:23;;;;;;;4.80;2.30;;;;;;;;;;43443;272;3033532;-33
2024/01/12 07:06:09;;;;;;;4.80;2.60;;;;;;;;;;43617;272;3031843;-33
2024/01/12 07:07:54;;;;;;;5.20;2.30;;;;;;;;;;43463;272;3031221;-33
2024/01/12 07:09:41;;;;;;;6.00;2.60;;;;;;;;;;43463;279;3031159;-33
2024/01/12 07:11:26;;;;;;;5.10;2.50;;;;;;;;;;44120;275;3037508;-33
2024/01/12 07:13:11;;;;;;;5.90;2.60;;;;;;;;;;43456;287;3031345;-33
2024/01/12 07:14:59;;;;;;;4.70;2.30;;;;;;;;;;43442;279;3031454;-33
2024/01/12 07:16:45;;;;;;;5.10;2.30;;;;;;;;;;43448;279;3031286;-33
2024/01/12 07:18:32;;;;;;;5.40;2.70;;;;;;;;;;43480;279;3031738;-33
2024/01/12 07:20:21;;;;;;;5.80;2.60;;;;;;;;;;43435;279;3032987;-33
2024/01/12 07:22:12;;;;;;;5.50;2.50;;;;;;;;;;43478;272;3031209;-33
2024/01/12 07:24:01;;;;;;;5.80;2.80;;;;;;;;;;43474;276;3033073;-31
2024/01/12 07:25:48;;;;;;;5.50;2.60;;;;;;;;;;43464;279;3031944;-31
2024/01/12 07:27:32;;;;;;;5.80;2.70;;;;;;;;;;43473;272;3030790;-30
2024/01/12 07:29:22;;;;;;;6.10;2.70;;;;;;;;;;43456;276;3031436;-32
2024/01/12 07:31:08;;;;;;;5.00;2.60;;;;;;;;;;43455;272;3031718;-31
2024/01/12 07:32:53;;;;;;;5.80;2.60;;;;;;;;;;43450;279;3031746;-31
2024/01/12 07:34:39;;;;;;;5.80;2.50;;;;;;;;;;43464;279;3031278;-31
2024/01/12 07:36:24;;;;;;;5.30;2.60;;;;;;;;;;43476;272;3031192;-31
2024/01/12 07:38:18;;;;;;;5.20;2.60;;;;;;;;;;43472;279;3031410;-31
2024/01/12 07:40:09;;;;;;;4.90;2.60;;;;;;;;;;43458;279;3031940;-31
2024/01/12 07:41:55;;;;;;;6.20;2.70;;;;;;;;;;43764;280;3031051;-31
2024/01/12 07:43:43;;;;;;;6.00;3.10;;;;;;;;;;43446;272;3031296;-31
2024/01/12 07:45:28;;;;;;;5.80;2.60;;;;;;;;;;43459;280;3031486;-32
2024/01/12 07:47:14;;;;;;;6.00;2.40;;;;;;;;;;43474;280;3031430;-31
2024/01/12 07:48:59;;;;;;;5.90;2.80;;;;;;;;;;43466;271;3031785;-31
2024/01/12 07:50:45;;;;;;;6.10;2.90;;;;;;;;;;43475;279;3031813;-31
2024/01/12 07:52:30;;;;;;;5.30;2.60;;;;;;;;;;43469;279;3039486;-31
2024/01/12 07:54:18;;;;;;;5.90;3.00;;;;;;;;;;43479;279;3031578;-31
2024/01/12 07:56:06;;;;;;;6.10;3.20;;;;;;;;;;43491;279;3031194;-31
2024/01/12 07:57:52;;;;;;;5.20;2.60;;;;;;;;;;43554;279;3031894;-31
2024/01/12 07:59:39;;;;;;;6.00;3.20;;;;;;;;;;43454;268;3031399;-31
2024/01/12 08:01:29;;;;;;;7.40;3.30;;;;;;;;;;43478;272;3031798;-31
2024/01/12 08:03:16;;;;;;;6.10;2.90;;;;;;;;;;43475;279;3031767;-31
2024/01/12 08:05:05;;;;;;;6.70;2.90;;;;;;;;;;43465;268;3031970;-31
2024/01/12 08:06:51;;;;;;;6.10;3.30;;;;;;;;;;43478;279;3032466;-32
2024/01/12 08:08:37;;;;;;;6.40;3.20;;;;;;;;;;43471;288;3031551;-31
2024/01/12 08:10:22;;;;;;;6.40;3.30;;;;;;;;;;43496;279;3031417;-32
2024/01/12 08:12:12;;;;;;;6.00;3.30;;;;;;;;;;43445;272;3031535;-32
2024/01/12 08:13:59;;;;;;;6.00;3.10;;;;;;;;;;43446;279;3031668;-32
2024/01/12 08:15:44;;;;;;;6.80;3.50;;;;;;;;;;43967;280;3031356;-32
2024/01/12 08:17:29;;;;;;;5.80;3.20;;;;;;;;;;43483;272;3032191;-32
2024/01/12 08:19:15;;;;;;;6.50;3.50;;;;;;;;;;43448;276;3031440;-32
2024/01/12 08:21:01;;;;;;;7.10;3.40;;;;;;;;;;43432;280;3031776;-32
2024/01/12 08:22:46;;;;;;;7.30;3.80;;;;;;;;;;43444;279;3034187;-32
2024/01/12 08:24:32;;;;;;;6.50;3.50;;;;;;;;;;43468;276;3031600;-32
2024/01/12 08:26:19;;;;;;;7.40;3.80;;;;;;;;;;43464;271;3031628;-32
2024/01/12 08:28:07;;;;;;;8.30;4.00;;;;;;;;;;43470;279;3031363;-32
2024/01/12 08:29:51;;;;;;;8.30;3.90;;;;;;;;;;44220;276;3031239;-32
2024/01/12 08:31:38;;;;;;;8.50;4.00;;;;;;;;;;43939;276;3031669;-32
2024/01/12 08:33:27;;;;;;;7.30;3.80;;;;;;;;;;43449;276;3037231;-32
2024/01/12 08:35:13;;;;;;;7.70;3.70;;;;;;;;;;43482;272;3030762;-32
2024/01/12 08:36:58;;;;;;;7.90;4.20;;;;;;;;;;43462;279;3031341;-32
2024/01/12 08:38:45;;;;;;;7.70;4.10;;;;;;;;;;43473;279;3031527;-32
2024/01/12 08:40:32;;;;;;;7.20;4.20;;;;;;;;;;43481;280;3032188;-32
2024/01/12 08:42:19;;;;;;;8.40;4.10;;;;;;;;;;43458;268;3033504;-32
2024/01/12 08:44:06;;;;;;;8.00;4.30;;;;;;;;;;43463;288;3031625;-32
2024/01/12 08:45:52;;;;;;;7.90;4.50;;;;;;;;;;44168;272;3031511;-32
2024/01/12 08:47:36;;;;;;;8.70;4.50;;;;;;;;;;43528;276;3031383;-32
2024/01/12 08:49:22;;;;;;;9.00;4.80;;;;;;;;;;43462;280;3030997;-32
2024/01/12 08:51:09;;;;;;;8.10;4.60;;;;;;;;;;43480;272;3031595;-32
2024/01/12 08:52:55;;;;;;;7.70;4.80;;;;;;;;;;43691;272;3031639;-32
2024/01/12 08:54:43;;;;;;;8.90;5.20;;;;;;;;;;43475;279;3031397;-32
2024/01/12 08:56:32;;;;;;;9.30;5.30;;;;;;;;;;43451;280;3031772;-32
2024/01/12 08:58:19;;;;;;;8.70;4.90;;;;;;;;;;43480;268;3032153;-32
2024/01/12 09:00:05;;;;;;;9.20;4.80;;;;;;;;;;44139;279;3031603;-32
2024/01/12 09:01:50;;;;;;;8.90;5.10;;;;;;;;;;43927;268;3031684;-32
2024/01/12 09:03:35;;;;;;;8.80;5.40;;;;;;;;;;43444;272;3031229;-32
2024/01/12 09:05:22;;;;;;;9.50;5.30;;;;;;;;;;43494;279;3031856;-32
2024/01/12 09:07:08;;;;;;;8.60;5.30;;;;;;;;;;43365;280;3031338;-31
2024/01/12 09:08:55;;;;;;;8.90;5.00;;;;;;;;;;43481;279;3031536;-32
2024/01/12 09:10:44;;;;;;;9.50;5.50;;;;;;;;;;43440;272;3031204;-32
2024/01/12 09:12:33;;;;;;;8.80;5.10;;;;;;;;;;43459;268;3031729;-32
2024/01/12 09:14:18;;;;;;;8.90;5.40;;;;;;;;;;43414;279;3038190;-34
2024/01/12 09:16:05;;;;;;;8.70;5.30;;;;;;;;;;43441;276;3030848;-34
2024/01/12 09:17:49;;;;;;;8.30;5.60;;;;;;;;;;43678;273;3031940;-31
2024/01/12 09:19:35;;;;;;;9.00;5.30;;;;;;;;;;43452;280;3031124;-33
2024/01/12 09:21:20;;;;;;;18.60;7.10;;;;;;;;;;43512;276;3032366;-33
2024/01/12 09:23:10;;;;;;;17.50;7.10;;;;;;;;;;43392;280;3034068;-33
2024/01/12 09:24:56;;;;;;;12.10;6.10;;;;;;;;;;43471;280;3031074;-33
2024/01/12 09:26:42;;;;;;;9.20;5.40;;;;;;;;;;43464;280;3031654;-33
2024/01/12 09:28:27;;;;;;;11.20;5.60;;;;;;;;;;43476;268;3031599;-32
2024/01/12 09:30:16;;;;;;;10.50;5.80;;;;;;;;;;43435;272;3030726;-31
2024/01/12 09:32:01;;;;;;;10.60;5.90;;;;;;;;;;43570;279;3031331;-31
2024/01/12 09:33:45;;;;;;;10.30;5.70;;;;;;;;;;43451;272;3030932;-31
2024/01/12 09:35:30;;;;;;;9.20;5.50;;;;;;;;;;43457;280;3031567;-31
2024/01/12 09:37:15;;;;;;;9.00;5.30;;;;;;;;;;43473;272;3031049;-33
2024/01/12 09:39:00;;;;;;;8.70;5.40;;;;;;;;;;43478;272;3031835;-32
2024/01/12 09:40:50;;;;;;;9.50;5.30;;;;;;;;;;43460;284;3032551;-34
2024/01/12 09:42:43;;;;;;;9.90;5.80;;;;;;;;;;43642;276;3031785;-34
2024/01/12 09:44:32;;;;;;;9.90;5.80;;;;;;;;;;43504;279;3031887;-34
2024/01/12 09:46:22;;;;;;;8.90;5.50;;;;;;;;;;43587;272;3031415;-33
2024/01/12 09:48:10;;;;;;;9.50;5.90;;;;;;;;;;43501;279;3031530;-33
2024/01/12 09:49:56;;;;;;;9.20;5.40;;;;;;;;;;43443;280;3032117;-33
2024/01/12 09:51:42;;;;;;;8.80;5.70;;;;;;;;;;43457;273;3032475;-32
2024/01/12 09:53:27;;;;;;;9.00;5.10;;;;;;;;;;43464;264;3031263;-33
2024/01/12 09:55:13;;;;;;;10.00;5.50;;;;;;;;;;43440;268;3037390;-35
2024/01/12 09:57:02;;;;;;;9.80;6.00;;;;;;;;;;43457;279;3031897;-33
2024/01/12 09:58:48;;;;;;;9.80;5.60;;;;;;;;;;44162;279;3031943;-34
2024/01/12 10:00:34;;;;;;;8.90;5.90;;;;;;;;;;44139;272;3030851;-35
2024/01/12 10:02:20;;;;;;;9.80;5.80;;;;;;;;;;44164;279;3031659;-33
2024/01/12 10:04:04;;;;;;;10.20;5.90;;;;;;;;;;44105;276;3030846;-34
2024/01/12 10:05:49;;;;;;;10.20;5.60;;;;;;;;;;44187;272;3031404;-34
2024/01/12 10:07:34;;;;;;;9.60;5.30;;;;;;;;;;44123;272;3031243;-34
2024/01/12 10:09:19;;;;;;;9.50;5.90;;;;;;;;;;43742;272;3031704;-33
2024/01/12 10:11:04;;;;;;;9.90;5.90;;;;;;;;;;43498;279;3030833;-33
2024/01/12 10:12:52;;;;;;;9.30;5.90;;;;;;;;;;44177;275;3031934;-35
2024/01/12 10:14:37;;;;;;;9.70;5.90;;;;;;;;;;44173;276;3031605;-34
2024/01/12 10:16:27;;;;;;;8.30;5.20;;;;;;;;;;44210;268;3031874;-34
2024/01/12 10:18:12;;;;;;;9.10;6.10;;;;;;;;;;43473;272;3031408;-34
2024/01/12 10:19:59;;;;;;;9.00;5.60;;;;;;;;;;43450;280;3031192;-35
2024/01/12 10:21:45;;;;;;;10.20;6.00;;;;;;;;;;43488;268;3031532;-34
2024/01/12 10:23:31;;;;;;;9.00;5.70;;;;;;;;;;43467;280;3031236;-34
2024/01/12 10:25:20;;;;;;;9.20;6.60;;;;;;;;;;43470;268;3031695;-33
2024/01/12 10:27:06;;;;;;;8.60;6.20;;;;;;;;;;43445;268;3030675;-33
2024/01/12 10:28:52;;;;;;;9.40;5.90;;;;;;;;;;43599;272;3031339;-34
2024/01/12 10:30:40;;;;;;;8.90;5.80;;;;;;;;;;43445;276;3031795;-34